createdAt,value
2018-10-21T00:00:23.058Z,21.07
2018-10-21T00:02:51.408Z,21.17
2018-10-21T00:05:19.624Z,20.63
2018-10-21T00:07:47.828Z,21.50
2018-10-21T00:10:16.030Z,21.00
2018-10-21T00:12:44.253Z,20.33
2018-10-21T00:15:12.862Z,20.43
2018-10-21T00:17:40.980Z,20.27
2018-10-21T00:20:09.235Z,21.00
2018-10-21T00:22:37.440Z,20.70
2018-10-21T00:25:06.156Z,19.93
2018-10-21T00:27:34.400Z,19.10
2018-10-21T00:30:02.687Z,19.07
2018-10-21T00:32:36.231Z,19.80
2018-10-21T00:35:05.045Z,18.37
2018-10-21T00:37:33.276Z,17.53
2018-10-21T00:40:01.480Z,17.57
2018-10-21T00:42:29.704Z,19.13
2018-10-21T00:44:57.900Z,19.03
2018-10-21T00:47:26.728Z,20.43
2018-10-21T00:49:54.947Z,18.93
2018-10-21T00:52:23.152Z,19.47
2018-10-21T00:54:51.347Z,18.37
2018-10-21T00:57:19.545Z,18.43
2018-10-21T00:59:47.759Z,18.80
2018-10-21T01:02:15.952Z,18.27
2018-10-21T01:04:44.156Z,17.73
2018-10-21T01:07:12.373Z,18.20
2018-10-21T01:09:40.680Z,19.37
2018-10-21T01:12:08.955Z,18.50
2018-10-21T01:14:37.139Z,17.97
2018-10-21T01:17:05.433Z,18.37
2018-10-21T01:19:33.636Z,18.63
2018-10-21T01:22:01.835Z,17.47
2018-10-21T01:24:30.028Z,17.97
2018-10-21T01:26:58.310Z,19.00
2018-10-21T01:29:26.460Z,17.30
2018-10-21T01:31:54.730Z,18.80
2018-10-21T01:34:22.930Z,17.47
2018-10-21T01:36:51.172Z,17.77
2018-10-21T01:39:30.989Z,19.17
2018-10-21T01:41:59.176Z,16.97
2018-10-21T01:44:27.400Z,17.80
2018-10-21T01:46:55.609Z,17.50
2018-10-21T01:49:23.820Z,17.27
2018-10-21T01:51:52.009Z,17.40
2018-10-21T01:54:24.692Z,18.40
2018-10-21T01:56:52.884Z,18.63
2018-10-21T01:59:21.077Z,16.30
2018-10-21T02:01:49.287Z,16.87
2018-10-21T02:04:17.504Z,16.53
2018-10-21T02:06:45.732Z,16.43
2018-10-21T02:09:13.991Z,17.43
2018-10-21T02:11:42.144Z,18.17
2018-10-21T02:14:10.403Z,17.37
2018-10-21T02:16:38.559Z,17.97
2018-10-21T02:19:06.752Z,17.77
2018-10-21T02:21:34.949Z,17.60
2018-10-21T02:24:03.160Z,17.63
2018-10-21T02:26:31.457Z,17.90
2018-10-21T02:28:59.564Z,16.20
2018-10-21T02:31:27.782Z,18.30
2018-10-21T02:33:56.032Z,16.93
2018-10-21T02:36:24.241Z,19.20
2018-10-21T02:38:52.449Z,17.70
2018-10-21T02:41:37.631Z,19.30
2018-10-21T02:44:07.110Z,19.47
2018-10-21T02:46:35.906Z,20.03
2018-10-21T02:49:04.877Z,20.43
2018-10-21T02:51:33.300Z,19.63
2018-10-21T02:54:01.495Z,17.93
2018-10-21T02:56:29.699Z,18.43
2018-10-21T02:58:58.086Z,19.43
2018-10-21T03:01:26.315Z,20.83
2018-10-21T03:03:54.523Z,17.90
2018-10-21T03:06:22.768Z,17.47
2018-10-21T03:08:51.024Z,18.77
2018-10-21T03:11:19.215Z,18.93
2018-10-21T03:13:47.517Z,19.13
2018-10-21T03:16:16.060Z,18.67
2018-10-21T03:18:44.261Z,20.83
2018-10-21T03:21:12.507Z,19.07
2018-10-21T03:23:40.699Z,17.83
2018-10-21T03:26:08.908Z,17.50
2018-10-21T03:28:37.107Z,17.53
2018-10-21T03:31:05.341Z,18.03
2018-10-21T03:33:33.624Z,18.10
2018-10-21T03:36:01.812Z,17.27
2018-10-21T03:38:29.982Z,18.10
2018-10-21T03:40:58.191Z,18.83
2018-10-21T03:43:26.472Z,18.60
2018-10-21T03:45:54.710Z,17.93
2018-10-21T03:48:22.908Z,17.77
2018-10-21T03:50:51.139Z,17.67
2018-10-21T03:53:19.340Z,16.63
2018-10-21T03:55:47.547Z,18.13
2018-10-21T03:58:15.824Z,17.27
2018-10-21T04:00:43.968Z,17.27
2018-10-21T04:03:12.180Z,17.07
2018-10-21T04:05:40.388Z,17.10
2018-10-21T04:08:08.600Z,16.63
2018-10-21T04:10:36.814Z,16.20
2018-10-21T04:13:05.249Z,17.30
2018-10-21T04:15:33.489Z,15.10
2018-10-21T04:18:01.733Z,17.73
2018-10-21T04:20:29.936Z,16.47
2018-10-21T04:22:59.275Z,18.57
2018-10-21T04:25:28.483Z,16.00
2018-10-21T04:27:57.562Z,16.80
2018-10-21T04:30:27.789Z,17.60
2018-10-21T04:32:59.192Z,16.93
2018-10-21T04:35:27.655Z,17.03
2018-10-21T04:40:15.303Z,17.60
2018-10-21T04:42:43.839Z,15.83
2018-10-21T04:45:12.954Z,17.40
2018-10-21T04:47:41.183Z,15.87
2018-10-21T04:50:10.173Z,17.40
2018-10-21T04:52:38.378Z,16.53
2018-10-21T04:55:10.420Z,16.33
2018-10-21T04:57:39.812Z,17.50
2018-10-21T05:00:17.850Z,16.87
2018-10-21T05:02:46.044Z,16.17
2018-10-21T05:05:14.832Z,16.27
2018-10-21T05:07:43.178Z,15.57
2018-10-21T05:10:30.763Z,15.43
2018-10-21T05:12:59.144Z,15.70
2018-10-21T05:15:28.504Z,15.63
2018-10-21T05:17:56.732Z,14.80
2018-10-21T05:20:24.937Z,14.23
2018-10-21T05:22:53.155Z,16.57
2018-10-21T05:25:21.360Z,15.10
2018-10-21T05:27:49.548Z,16.63
2018-10-21T05:30:17.760Z,16.60
2018-10-21T05:32:45.948Z,17.97
2018-10-21T05:35:15.280Z,16.93
2018-10-21T05:37:43.783Z,16.73
2018-10-21T05:40:16.283Z,16.93
2018-10-21T05:42:44.876Z,16.93
2018-10-21T05:45:13.177Z,17.23
2018-10-21T05:47:41.943Z,19.20
2018-10-21T05:50:11.274Z,17.77
2018-10-21T05:52:39.966Z,17.73
2018-10-21T05:55:08.970Z,17.33
2018-10-21T05:57:37.360Z,16.17
2018-10-21T06:00:09.967Z,16.87
2018-10-21T06:02:38.165Z,16.87
2018-10-21T06:05:16.714Z,17.97
2018-10-21T06:07:44.903Z,16.70
2018-10-21T06:10:13.336Z,16.50
2018-10-21T06:12:41.387Z,16.77
2018-10-21T06:15:09.588Z,16.73
2018-10-21T06:17:37.816Z,17.23
2018-10-21T06:20:15.436Z,15.97
2018-10-21T06:22:45.379Z,15.57
2018-10-21T06:25:13.606Z,16.23
2018-10-21T06:27:41.839Z,16.67
2018-10-21T06:30:11.343Z,17.00
2018-10-21T06:32:39.568Z,16.67
2018-10-21T06:35:08.362Z,15.60
2018-10-21T06:37:36.832Z,17.27
2018-10-21T06:40:06.717Z,16.00
2018-10-21T06:42:34.917Z,17.47
2018-10-21T06:45:03.323Z,16.07
2018-10-21T06:47:31.463Z,16.07
2018-10-21T06:49:59.660Z,15.57
2018-10-21T06:52:27.872Z,16.10
2018-10-21T06:54:56.069Z,17.40
2018-10-21T06:57:24.511Z,16.93
2018-10-21T06:59:52.655Z,17.93
2018-10-21T07:02:20.864Z,16.63
2018-10-21T07:04:49.398Z,17.30
2018-10-21T07:07:17.617Z,18.10
2018-10-21T07:09:45.832Z,17.10
2018-10-21T07:12:14.040Z,17.17
2018-10-21T07:14:42.240Z,19.30
2018-10-21T07:17:10.470Z,17.83
2018-10-21T07:19:38.647Z,17.70
2018-10-21T07:22:06.933Z,17.70
2018-10-21T07:24:35.075Z,18.17
2018-10-21T07:27:03.276Z,17.33
2018-10-21T07:29:31.696Z,17.33
2018-10-21T07:31:59.893Z,16.90
2018-10-21T07:34:28.100Z,16.83
2018-10-21T07:36:56.314Z,16.40
2018-10-21T07:39:25.083Z,17.23
2018-10-21T07:41:53.276Z,16.57
2018-10-21T07:44:21.466Z,16.30
2018-10-21T07:46:50.712Z,15.57
2018-10-21T07:49:19.892Z,15.47
2018-10-21T07:51:48.339Z,16.60
2018-10-21T07:54:16.679Z,16.77
2018-10-21T07:56:44.900Z,16.67
2018-10-21T07:59:13.112Z,16.70
2018-10-21T08:01:41.679Z,20.92
2018-10-21T08:04:09.907Z,17.00
2018-10-21T08:07:46.876Z,16.47
2018-10-21T08:10:15.192Z,16.83
2018-10-21T08:12:43.408Z,15.73
2018-10-21T08:15:11.675Z,17.73
2018-10-21T08:17:39.828Z,18.77
2018-10-21T08:20:08.417Z,18.70
2018-10-21T08:22:36.621Z,18.13
2018-10-21T08:25:05.200Z,18.70
2018-10-21T08:27:33.424Z,17.43
2018-10-21T08:30:01.620Z,17.53
2018-10-21T08:32:29.844Z,18.53
2018-10-21T08:34:58.236Z,19.73
2018-10-21T08:37:26.495Z,19.50
2018-10-21T08:39:54.733Z,19.87
2018-10-21T08:42:23.161Z,19.60
2018-10-21T08:44:51.400Z,19.33
2018-10-21T08:47:19.603Z,20.93
2018-10-21T08:49:47.844Z,20.00
2018-10-21T08:52:16.123Z,22.37
2018-10-21T08:54:44.340Z,22.03
2018-10-21T08:57:12.662Z,20.93
2018-10-21T08:59:40.892Z,22.67
2018-10-21T09:02:09.244Z,21.97
2018-10-21T09:04:37.364Z,22.10
2018-10-21T09:07:05.731Z,21.43
2018-10-21T09:09:33.908Z,21.80
2018-10-21T09:12:02.120Z,22.27
2018-10-21T09:14:30.355Z,22.87
2018-10-21T09:16:58.576Z,23.17
2018-10-21T09:19:26.826Z,22.97
2018-10-21T09:21:55.093Z,20.10
2018-10-21T09:24:23.324Z,19.53
2018-10-21T09:26:51.552Z,18.70
2018-10-21T09:29:19.852Z,18.63
2018-10-21T09:31:48.068Z,16.67
2018-10-21T09:34:16.338Z,15.73
2018-10-21T09:36:44.476Z,15.20
2018-10-21T09:39:14.132Z,15.00
2018-10-21T09:41:43.088Z,13.70
2018-10-21T09:44:11.600Z,13.60
2018-10-21T09:46:40.642Z,13.67
2018-10-21T09:49:09.916Z,13.27
2018-10-21T09:51:38.206Z,12.97
2018-10-21T09:54:06.612Z,13.03
2018-10-21T09:56:35.111Z,13.50
2018-10-21T09:59:03.352Z,12.50
2018-10-21T10:01:37.747Z,13.40
2018-10-21T10:04:05.985Z,14.73
2018-10-21T10:06:34.283Z,13.07
2018-10-21T10:09:02.509Z,12.33
2018-10-21T10:11:30.737Z,12.67
2018-10-21T10:13:59.012Z,13.17
2018-10-21T10:16:27.228Z,12.37
2018-10-21T10:18:55.749Z,12.17
2018-10-21T10:21:23.956Z,12.27
2018-10-21T10:23:52.432Z,14.20
2018-10-21T10:26:20.693Z,11.30
2018-10-21T10:28:48.904Z,11.50
2018-10-21T10:31:17.184Z,11.70
2018-10-21T10:33:45.341Z,10.83
2018-10-21T10:36:14.434Z,11.07
2018-10-21T10:38:42.557Z,10.30
2018-10-21T10:41:10.774Z,10.57
2018-10-21T10:43:38.988Z,10.57
2018-10-21T10:46:07.229Z,9.63
2018-10-21T10:48:35.397Z,9.13
2018-10-21T10:51:03.642Z,9.23
2018-10-21T10:53:31.836Z,8.40
2018-10-21T10:56:00.051Z,9.50
2018-10-21T10:58:28.248Z,8.13
2018-10-21T11:00:56.473Z,7.67
2018-10-21T11:03:24.991Z,8.43
2018-10-21T11:05:53.213Z,7.13
2018-10-21T11:08:21.426Z,6.43
2018-10-21T11:10:49.623Z,6.83
2018-10-21T11:13:18.009Z,6.07
2018-10-21T11:15:46.152Z,6.33
2018-10-21T11:18:14.348Z,7.13
2018-10-21T11:20:42.569Z,7.27
2018-10-21T11:23:10.769Z,7.13
2018-10-21T11:25:39.383Z,6.53
2018-10-21T11:28:07.632Z,6.90
2018-10-21T11:30:35.790Z,7.33
2018-10-21T11:33:03.983Z,6.77
2018-10-21T11:35:32.196Z,6.93
2018-10-21T11:38:00.415Z,6.90
2018-10-21T11:40:28.614Z,6.27
2018-10-21T11:42:56.876Z,6.23
2018-10-21T11:45:25.284Z,5.73
2018-10-21T11:47:53.487Z,5.80
2018-10-21T11:50:21.671Z,5.27
2018-10-21T11:52:49.892Z,6.50
2018-10-21T11:55:18.237Z,4.77
2018-10-21T11:57:46.359Z,4.90
2018-10-21T12:00:14.566Z,4.77
2018-10-21T12:02:42.768Z,4.50
2018-10-21T12:05:10.972Z,4.80
2018-10-21T12:07:39.284Z,4.50
2018-10-21T12:10:08.180Z,4.30
2018-10-21T12:12:36.345Z,4.73
2018-10-21T12:15:04.690Z,4.00
2018-10-21T12:17:33.261Z,3.97
2018-10-21T12:20:01.555Z,3.97
2018-10-21T12:22:29.719Z,4.00
2018-10-21T12:24:58.265Z,3.90
2018-10-21T12:27:26.481Z,4.30
2018-10-21T12:29:54.689Z,3.93
2018-10-21T12:32:22.892Z,4.30
2018-10-21T12:34:51.129Z,4.83
2018-10-21T12:37:19.540Z,5.00
2018-10-21T12:39:47.765Z,4.23
2018-10-21T12:42:16.009Z,4.03
2018-10-21T12:44:44.212Z,4.37
2018-10-21T12:47:12.491Z,4.77
2018-10-21T12:49:40.627Z,3.97
2018-10-21T12:52:09.018Z,4.50
2018-10-21T12:54:37.201Z,4.10
2018-10-21T12:57:05.620Z,4.00
2018-10-21T12:59:33.821Z,4.50
2018-10-21T13:02:02.072Z,4.60
2018-10-21T13:04:30.331Z,4.67
2018-10-21T13:06:58.669Z,4.30
2018-10-21T13:09:26.824Z,3.73
2018-10-21T13:11:55.024Z,3.93
2018-10-21T13:14:23.237Z,4.47
2018-10-21T13:16:51.428Z,4.10
2018-10-21T13:19:19.640Z,4.40
2018-10-21T13:21:47.848Z,3.90
2018-10-21T13:24:16.063Z,3.40
2018-10-21T13:26:44.291Z,4.20
2018-10-21T13:29:12.496Z,3.53
2018-10-21T13:31:40.772Z,3.93
2018-10-21T13:34:09.055Z,3.13
2018-10-21T13:36:37.187Z,3.30
2018-10-21T13:39:08.879Z,3.40
2018-10-21T13:41:37.096Z,2.40
2018-10-21T13:44:05.372Z,2.03
2018-10-21T13:46:33.562Z,2.17
2018-10-21T13:49:01.799Z,2.23
2018-10-21T13:51:30.046Z,2.20
2018-10-21T13:53:58.198Z,1.87
2018-10-21T13:56:26.396Z,1.80
2018-10-21T13:58:54.634Z,1.67
2018-10-21T14:01:22.882Z,1.60
2018-10-21T14:03:51.103Z,1.40
2018-10-21T14:06:19.305Z,1.50
2018-10-21T14:08:47.519Z,1.77
2018-10-21T14:11:15.720Z,1.40
2018-10-21T14:13:43.935Z,1.33
2018-10-21T14:16:12.241Z,1.37
2018-10-21T14:18:40.367Z,1.67
2018-10-21T14:21:08.595Z,1.40
2018-10-21T14:23:36.870Z,1.40
2018-10-21T14:26:05.632Z,1.93
2018-10-21T14:28:33.844Z,1.43
2018-10-21T14:31:02.330Z,1.43
2018-10-21T14:33:30.460Z,1.37
2018-10-21T14:35:58.736Z,1.20
2018-10-21T14:38:26.910Z,1.27
2018-10-21T14:40:55.344Z,1.47
2018-10-21T14:43:23.528Z,1.40
2018-10-21T14:45:51.829Z,1.10
2018-10-21T14:48:19.966Z,1.00
2018-10-21T14:50:48.174Z,1.10
2018-10-21T14:53:16.403Z,1.30
2018-10-21T14:55:44.988Z,1.50
2018-10-21T14:58:13.250Z,1.20
2018-10-21T15:00:41.598Z,1.50
2018-10-21T15:03:09.907Z,1.33
2018-10-21T15:05:38.120Z,1.30
2018-10-21T15:08:06.342Z,1.07
2018-10-21T15:10:34.865Z,1.00
2018-10-21T15:13:03.477Z,1.30
2018-10-21T15:15:31.748Z,1.40
2018-10-21T15:17:59.955Z,1.20
2018-10-21T15:20:28.138Z,1.20
2018-10-21T15:22:56.456Z,1.90
2018-10-21T15:25:24.643Z,2.20
2018-10-21T15:27:52.851Z,1.47
2018-10-21T15:30:21.066Z,2.00
2018-10-21T15:32:49.272Z,1.50
2018-10-21T15:35:17.477Z,1.20
2018-10-21T15:37:45.817Z,1.33
2018-10-21T15:40:14.263Z,1.10
2018-10-21T15:42:42.447Z,1.43
2018-10-21T15:45:11.680Z,1.07
2018-10-21T15:47:39.928Z,1.20
2018-10-21T15:50:08.711Z,1.10
2018-10-21T15:52:36.952Z,1.50
2018-10-21T15:55:05.850Z,1.30
2018-10-21T15:57:34.072Z,1.03
2018-10-21T16:00:02.516Z,1.17
2018-10-21T16:02:30.836Z,1.00
2018-10-21T16:04:58.984Z,1.30
2018-10-21T16:07:27.187Z,1.60
2018-10-21T16:09:55.437Z,1.40
2018-10-21T16:12:23.607Z,1.53
2018-10-21T16:14:51.812Z,2.20
2018-10-21T16:17:20.008Z,1.70
2018-10-21T16:19:48.351Z,1.90
2018-10-21T16:22:16.557Z,1.70
2018-10-21T16:24:44.703Z,1.60
2018-10-21T16:27:13.055Z,1.47
2018-10-21T16:29:41.277Z,1.80
2018-10-21T16:32:09.724Z,1.30
2018-10-21T16:34:37.793Z,1.70
2018-10-21T16:37:06.018Z,1.30
2018-10-21T16:39:34.295Z,1.70
2018-10-21T16:42:02.487Z,1.67
2018-10-21T16:44:30.712Z,1.63
2018-10-21T16:46:58.912Z,1.67
2018-10-21T16:49:27.140Z,2.10
2018-10-21T16:51:55.428Z,1.97
2018-10-21T16:54:23.806Z,2.57
2018-10-21T16:56:51.862Z,1.73
2018-10-21T16:59:20.159Z,2.43
2018-10-21T17:01:48.295Z,2.20
2018-10-21T17:04:16.548Z,1.80
2018-10-21T17:06:44.763Z,1.83
2018-10-21T17:09:14.161Z,1.50
2018-10-21T17:11:43.092Z,2.03
2018-10-21T17:14:11.280Z,1.50
2018-10-21T17:16:39.809Z,2.17
2018-10-21T17:19:08.504Z,1.87
2018-10-21T17:21:36.670Z,1.67
2018-10-21T17:24:04.946Z,1.60
2018-10-21T17:26:33.193Z,1.60
2018-10-21T17:29:01.421Z,2.07
2018-10-21T17:31:29.892Z,1.47
2018-10-21T17:33:58.106Z,2.07
2018-10-21T17:36:26.293Z,4.43
2018-10-21T17:38:54.572Z,3.07
2018-10-21T17:41:22.837Z,2.17
2018-10-21T17:43:51.230Z,3.00
2018-10-21T17:46:19.536Z,1.90
2018-10-21T17:48:47.652Z,2.30
2018-10-21T17:51:15.888Z,1.73
2018-10-21T17:53:44.200Z,2.20
2018-10-21T17:56:12.404Z,2.30
2018-10-21T17:58:40.746Z,2.67
2018-10-21T18:01:08.905Z,1.90
2018-10-21T18:03:37.072Z,2.40
2018-10-21T18:06:05.272Z,1.80
2018-10-21T18:08:33.489Z,2.33
2018-10-21T18:11:08.514Z,2.50
2018-10-21T18:13:36.772Z,4.27
2018-10-21T18:16:05.077Z,3.43
2018-10-21T18:18:33.317Z,5.17
2018-10-21T18:21:01.520Z,3.73
2018-10-21T18:23:29.756Z,3.80
2018-10-21T18:25:58.063Z,2.50
2018-10-21T18:28:26.267Z,2.70
2018-10-21T18:30:54.504Z,3.07
2018-10-21T18:33:22.692Z,3.00
2018-10-21T18:35:50.984Z,4.00
2018-10-21T18:38:19.205Z,2.93
2018-10-21T18:40:47.905Z,3.20
2018-10-21T18:43:16.007Z,3.37
2018-10-21T18:45:44.238Z,5.13
2018-10-21T18:48:12.497Z,4.50
2018-10-21T18:50:40.846Z,5.70
2018-10-21T18:53:09.112Z,6.07
2018-10-21T18:55:37.372Z,5.57
2018-10-21T18:58:05.744Z,6.23
2018-10-21T19:00:34.043Z,6.40
2018-10-21T19:03:02.401Z,6.73
2018-10-21T19:05:31.154Z,6.57
2018-10-21T19:07:59.428Z,7.93
2018-10-21T19:10:27.842Z,8.30
2018-10-21T19:13:00.050Z,8.50
2018-10-21T19:15:24.439Z,8.20
2018-10-21T19:17:52.728Z,7.17
2018-10-21T19:20:21.157Z,7.30
2018-10-21T19:22:49.542Z,7.17
2018-10-21T19:25:17.961Z,6.90
2018-10-21T19:27:46.740Z,7.17
2018-10-21T19:30:15.316Z,7.93
2018-10-21T19:32:43.780Z,7.30
2018-10-21T19:35:13.174Z,7.00
2018-10-21T19:37:41.464Z,6.03
2018-10-21T19:40:11.606Z,7.00
2018-10-21T19:42:39.916Z,7.13
2018-10-21T19:45:09.062Z,6.50
2018-10-21T19:47:37.308Z,5.73
2018-10-21T19:50:06.728Z,6.07
2018-10-21T19:52:34.980Z,5.97
2018-10-21T19:55:07.002Z,5.43
2018-10-21T19:57:35.707Z,5.90
2018-10-21T20:00:05.132Z,6.53
2018-10-21T20:02:33.385Z,7.13
2018-10-21T20:05:01.801Z,7.10
2018-10-21T20:07:30.340Z,8.00
2018-10-21T20:09:58.648Z,7.73
2018-10-21T20:12:26.796Z,7.20
2018-10-21T20:14:55.043Z,9.43
2018-10-21T20:17:23.287Z,8.47
2018-10-21T20:19:51.769Z,7.43
2018-10-21T20:22:20.003Z,7.53
2018-10-21T20:24:48.324Z,7.17
2018-10-21T20:27:16.530Z,6.17
2018-10-21T20:29:44.761Z,6.10
2018-10-21T20:32:12.984Z,6.77
2018-10-21T20:34:41.194Z,6.10
2018-10-21T20:37:09.401Z,5.83
2018-10-21T20:39:37.631Z,6.07
2018-10-21T20:42:05.967Z,5.37
2018-10-21T20:44:34.116Z,6.23
2018-10-21T20:47:02.541Z,6.60
2018-10-21T20:49:30.763Z,6.47
2018-10-21T20:51:59.023Z,6.50
2018-10-21T20:54:32.579Z,6.10
2018-10-21T20:57:05.001Z,5.87
2018-10-21T20:59:33.363Z,6.40
2018-10-21T21:02:01.571Z,6.17
2018-10-21T21:04:29.765Z,5.67
2018-10-21T21:06:58.000Z,5.73
2018-10-21T21:09:26.216Z,5.80
2018-10-21T21:11:54.417Z,6.00
2018-10-21T21:14:22.646Z,6.03
2018-10-21T21:16:50.844Z,6.50
2018-10-21T21:19:19.088Z,5.83
2018-10-21T21:21:47.333Z,5.30
2018-10-21T21:24:15.562Z,6.27
2018-10-21T21:26:43.751Z,6.50
2018-10-21T21:29:11.984Z,6.33
2018-10-21T21:31:40.280Z,4.83
2018-10-21T21:34:08.528Z,5.37
2018-10-21T21:36:36.808Z,6.00
2018-10-21T21:39:07.964Z,6.17
2018-10-21T21:41:36.175Z,5.60
2018-10-21T21:44:04.722Z,5.83
2018-10-21T21:46:33.094Z,6.43
2018-10-21T21:49:01.319Z,5.70
2018-10-21T21:51:29.538Z,5.77
2018-10-21T21:53:57.782Z,6.20
2018-10-21T21:56:25.986Z,6.80
2018-10-21T21:58:54.188Z,7.67
2018-10-21T22:01:22.486Z,7.33
2018-10-21T22:03:50.832Z,6.83
2018-10-21T22:06:19.193Z,6.80
2018-10-21T22:08:47.231Z,6.97
2018-10-21T22:11:15.564Z,6.43
2018-10-21T22:13:43.795Z,6.20
2018-10-21T22:16:12.044Z,6.67
2018-10-21T22:18:40.225Z,7.00
2018-10-21T22:21:08.427Z,6.17
2018-10-21T22:23:36.664Z,6.27
2018-10-21T22:26:04.920Z,6.10
2018-10-21T22:28:33.177Z,6.63
2018-10-21T22:31:01.378Z,6.40
2018-10-21T22:33:29.585Z,5.80
2018-10-21T22:35:57.832Z,5.97
2018-10-21T22:38:26.047Z,6.50
2018-10-21T22:40:54.221Z,6.27
2018-10-21T22:43:22.428Z,5.90
2018-10-21T22:45:50.636Z,5.93
2018-10-21T22:48:18.841Z,6.23
2018-10-21T22:50:47.060Z,6.70
2018-10-21T22:53:15.302Z,6.53
2018-10-21T22:55:43.732Z,6.53
2018-10-21T22:58:12.074Z,6.40
2018-10-21T23:00:40.178Z,6.30
2018-10-21T23:03:08.586Z,6.37
2018-10-21T23:05:36.783Z,6.30
2018-10-21T23:08:05.190Z,8.47
2018-10-21T23:10:33.384Z,8.40
2018-10-21T23:13:01.616Z,9.57
2018-10-21T23:15:30.018Z,7.93
2018-10-21T23:17:58.205Z,8.50
2018-10-21T23:20:26.411Z,8.13
2018-10-21T23:22:54.613Z,7.77
2018-10-21T23:25:22.816Z,8.20
2018-10-21T23:27:51.000Z,8.33
2018-10-21T23:30:19.303Z,7.50
2018-10-21T23:32:47.423Z,7.87
2018-10-21T23:35:15.648Z,8.50
2018-10-21T23:37:43.878Z,7.00
2018-10-21T23:40:12.099Z,7.40
2018-10-21T23:42:40.300Z,7.87
2018-10-21T23:45:08.543Z,8.00
2018-10-21T23:47:36.767Z,7.67
2018-10-21T23:50:05.400Z,7.10
2018-10-21T23:52:33.596Z,8.07
2018-10-21T23:55:01.805Z,7.87
2018-10-21T23:57:30.271Z,7.70
2018-10-21T23:59:58.507Z,7.37
